sensor_id;sensor_type;location;lat;lon;timestamp;P1;durP1;ratioP1;P2;durP2;ratioP2
4583;SDS011;2304;47.606;12.186;2024-03-23T00:58:49;10.50;;;4.17;;
4583;SDS011;2304;47.606;12.186;2024-03-23T01:03:51;8.23;;;3.87;;
4583;SDS011;2304;47.606;12.186;2024-03-23T01:08:54;5.10;;;4.00;;
4583;SDS011;2304;47.606;12.186;2024-03-23T01:13:56;8.30;;;4.40;;
4583;SDS011;2304;47.606;12.186;2024-03-23T01:18:58;6.20;;;3.57;;
4583;SDS011;2304;47.606;12.186;2024-03-23T01:24:01;7.00;;;4.03;;
4583;SDS011;2304;47.606;12.186;2024-03-23T01:29:03;9.70;;;4.63;;
4583;SDS011;2304;47.606;12.186;2024-03-23T01:34:05;8.87;;;3.93;;
4583;SDS011;2304;47.606;12.186;2024-03-23T01:39:09;7.90;;;3.90;;
4583;SDS011;2304;47.606;12.186;2024-03-23T01:44:11;6.60;;;4.20;;
4583;SDS011;2304;47.606;12.186;2024-03-23T01:49:13;9.90;;;3.87;;
4583;SDS011;2304;47.606;12.186;2024-03-23T01:54:16;6.33;;;3.90;;
4583;SDS011;2304;47.606;12.186;2024-03-23T01:59:18;6.80;;;3.80;;
4583;SDS011;2304;47.606;12.186;2024-03-23T02:04:21;5.50;;;3.60;;
4583;SDS011;2304;47.606;12.186;2024-03-23T02:09:24;7.83;;;3.97;;
4583;SDS011;2304;47.606;12.186;2024-03-23T02:14:26;6.30;;;3.90;;
4583;SDS011;2304;47.606;12.186;2024-03-23T02:19:28;4.30;;;3.27;;
4583;SDS011;2304;47.606;12.186;2024-03-23T02:24:31;6.40;;;3.43;;
4583;SDS011;2304;47.606;12.186;2024-03-23T02:29:34;6.10;;;3.30;;
4583;SDS011;2304;47.606;12.186;2024-03-23T02:34:36;5.07;;;3.30;;
4583;SDS011;2304;47.606;12.186;2024-03-23T02:39:39;6.80;;;3.63;;
4583;SDS011;2304;47.606;12.186;2024-03-23T02:44:41;6.07;;;3.87;;
4583;SDS011;2304;47.606;12.186;2024-03-23T02:49:42;7.27;;;4.00;;
4583;SDS011;2304;47.606;12.186;2024-03-23T02:54:46;5.40;;;4.00;;
4583;SDS011;2304;47.606;12.186;2024-03-23T02:59:47;5.17;;;4.00;;
4583;SDS011;2304;47.606;12.186;2024-03-23T03:04:49;5.07;;;3.73;;
4583;SDS011;2304;47.606;12.186;2024-03-23T03:09:52;6.47;;;4.20;;
4583;SDS011;2304;47.606;12.186;2024-03-23T03:14:54;5.97;;;3.60;;
4583;SDS011;2304;47.606;12.186;2024-03-23T03:19:56;5.83;;;4.13;;
4583;SDS011;2304;47.606;12.186;2024-03-23T03:24:59;5.70;;;3.73;;
4583;SDS011;2304;47.606;12.186;2024-03-23T03:30:02;6.30;;;4.30;;
4583;SDS011;2304;47.606;12.186;2024-03-23T03:35:06;6.43;;;4.10;;
4583;SDS011;2304;47.606;12.186;2024-03-23T03:40:10;5.80;;;4.10;;
4583;SDS011;2304;47.606;12.186;2024-03-23T03:45:12;10.30;;;4.30;;
4583;SDS011;2304;47.606;12.186;2024-03-23T03:50:14;6.53;;;4.07;;
4583;SDS011;2304;47.606;12.186;2024-03-23T03:55:17;5.70;;;3.70;;
4583;SDS011;2304;47.606;12.186;2024-03-23T04:00:19;5.17;;;3.97;;
4583;SDS011;2304;47.606;12.186;2024-03-23T04:05:21;4.27;;;3.20;;
4583;SDS011;2304;47.606;12.186;2024-03-23T04:10:24;10.13;;;3.80;;
4583;SDS011;2304;47.606;12.186;2024-03-23T04:15:26;5.30;;;3.90;;
4583;SDS011;2304;47.606;12.186;2024-03-23T04:20:28;13.17;;;4.00;;
4583;SDS011;2304;47.606;12.186;2024-03-23T04:25:31;8.03;;;4.40;;
4583;SDS011;2304;47.606;12.186;2024-03-23T04:30:33;6.03;;;4.03;;
4583;SDS011;2304;47.606;12.186;2024-03-23T04:35:37;6.80;;;3.77;;
4583;SDS011;2304;47.606;12.186;2024-03-23T04:40:40;5.97;;;3.87;;
4583;SDS011;2304;47.606;12.186;2024-03-23T04:45:42;12.33;;;4.37;;
4583;SDS011;2304;47.606;12.186;2024-03-23T04:50:44;6.43;;;4.30;;
4583;SDS011;2304;47.606;12.186;2024-03-23T04:55:47;5.50;;;3.87;;
4583;SDS011;2304;47.606;12.186;2024-03-23T05:00:52;6.30;;;3.90;;
4583;SDS011;2304;47.606;12.186;2024-03-23T05:05:55;6.60;;;4.17;;
4583;SDS011;2304;47.606;12.186;2024-03-23T05:10:58;6.83;;;3.87;;
4583;SDS011;2304;47.606;12.186;2024-03-23T05:16:00;6.60;;;3.67;;
4583;SDS011;2304;47.606;12.186;2024-03-23T05:21:02;7.53;;;4.13;;
4583;SDS011;2304;47.606;12.186;2024-03-23T05:26:06;8.50;;;5.30;;
4583;SDS011;2304;47.606;12.186;2024-03-23T05:31:07;5.30;;;3.80;;
4583;SDS011;2304;47.606;12.186;2024-03-23T05:36:10;7.40;;;3.93;;
4583;SDS011;2304;47.606;12.186;2024-03-23T05:41:13;6.67;;;4.30;;
4583;SDS011;2304;47.606;12.186;2024-03-23T05:46:15;6.10;;;4.30;;
4583;SDS011;2304;47.606;12.186;2024-03-23T05:51:18;9.77;;;5.40;;
4583;SDS011;2304;47.606;12.186;2024-03-23T05:56:21;6.73;;;4.00;;
4583;SDS011;2304;47.606;12.186;2024-03-23T06:01:23;5.80;;;3.67;;
4583;SDS011;2304;47.606;12.186;2024-03-23T06:06:24;7.10;;;3.97;;
4583;SDS011;2304;47.606;12.186;2024-03-23T06:11:28;6.67;;;3.97;;
4583;SDS011;2304;47.606;12.186;2024-03-23T06:16:30;7.60;;;4.80;;
4583;SDS011;2304;47.606;12.186;2024-03-23T06:21:31;6.50;;;4.17;;
4583;SDS011;2304;47.606;12.186;2024-03-23T06:26:35;5.77;;;4.07;;
4583;SDS011;2304;47.606;12.186;2024-03-23T06:31:37;8.00;;;5.63;;
4583;SDS011;2304;47.606;12.186;2024-03-23T06:36:39;6.40;;;4.20;;
4583;SDS011;2304;47.606;12.186;2024-03-23T06:41:42;6.57;;;3.80;;
4583;SDS011;2304;47.606;12.186;2024-03-23T06:46:44;8.03;;;4.40;;
4583;SDS011;2304;47.606;12.186;2024-03-23T06:51:46;6.90;;;4.90;;
4583;SDS011;2304;47.606;12.186;2024-03-23T06:56:49;6.13;;;4.20;;
4583;SDS011;2304;47.606;12.186;2024-03-23T07:01:51;5.10;;;4.13;;
4583;SDS011;2304;47.606;12.186;2024-03-23T07:06:53;6.07;;;3.60;;
4583;SDS011;2304;47.606;12.186;2024-03-23T07:11:56;5.27;;;3.80;;
4583;SDS011;2304;47.606;12.186;2024-03-23T07:16:58;8.40;;;3.77;;
4583;SDS011;2304;47.606;12.186;2024-03-23T07:22:00;7.60;;;3.90;;
4583;SDS011;2304;47.606;12.186;2024-03-23T07:27:03;7.30;;;3.50;;
4583;SDS011;2304;47.606;12.186;2024-03-23T07:32:08;5.40;;;3.10;;
4583;SDS011;2304;47.606;12.186;2024-03-23T07:37:11;11.03;;;3.63;;
4583;SDS011;2304;47.606;12.186;2024-03-23T07:42:15;4.50;;;3.57;;
4583;SDS011;2304;47.606;12.186;2024-03-23T07:47:17;7.70;;;3.60;;
4583;SDS011;2304;47.606;12.186;2024-03-23T07:52:19;5.43;;;3.50;;
4583;SDS011;2304;47.606;12.186;2024-03-23T07:57:23;4.60;;;2.93;;
4583;SDS011;2304;47.606;12.186;2024-03-23T08:02:24;5.30;;;3.13;;
4583;SDS011;2304;47.606;12.186;2024-03-23T08:07:26;5.80;;;3.23;;
4583;SDS011;2304;47.606;12.186;2024-03-23T08:12:30;4.60;;;3.20;;
4583;SDS011;2304;47.606;12.186;2024-03-23T08:17:32;3.50;;;2.30;;
4583;SDS011;2304;47.606;12.186;2024-03-23T08:22:33;3.63;;;2.50;;
4583;SDS011;2304;47.606;12.186;2024-03-23T08:27:37;4.17;;;2.63;;
4583;SDS011;2304;47.606;12.186;2024-03-23T08:32:38;4.23;;;2.53;;
4583;SDS011;2304;47.606;12.186;2024-03-23T08:37:40;6.00;;;2.90;;
4583;SDS011;2304;47.606;12.186;2024-03-23T08:42:43;4.10;;;2.63;;
4583;SDS011;2304;47.606;12.186;2024-03-23T08:47:45;3.17;;;2.50;;
4583;SDS011;2304;47.606;12.186;2024-03-23T08:52:47;3.30;;;2.23;;
4583;SDS011;2304;47.606;12.186;2024-03-23T08:57:53;3.97;;;2.53;;
4583;SDS011;2304;47.606;12.186;2024-03-23T09:02:54;9.80;;;2.70;;
4583;SDS011;2304;47.606;12.186;2024-03-23T09:07:57;3.77;;;2.50;;
4583;SDS011;2304;47.606;12.186;2024-03-23T09:13:00;4.83;;;2.43;;
4583;SDS011;2304;47.606;12.186;2024-03-23T09:18:02;5.23;;;2.47;;
4583;SDS011;2304;47.606;12.186;2024-03-23T09:23:04;3.50;;;2.03;;
4583;SDS011;2304;47.606;12.186;2024-03-23T09:28:08;4.30;;;2.23;;
4583;SDS011;2304;47.606;12.186;2024-03-23T09:33:10;3.20;;;2.30;;
4583;SDS011;2304;47.606;12.186;2024-03-23T09:38:13;4.40;;;1.87;;
4583;SDS011;2304;47.606;12.186;2024-03-23T09:43:16;2.50;;;1.33;;
4583;SDS011;2304;47.606;12.186;2024-03-23T09:48:18;4.10;;;1.20;;
4583;SDS011;2304;47.606;12.186;2024-03-23T09:53:20;3.30;;;1.40;;
4583;SDS011;2304;47.606;12.186;2024-03-23T09:58:24;3.13;;;1.27;;
4583;SDS011;2304;47.606;12.186;2024-03-23T10:03:25;2.27;;;1.30;;
4583;SDS011;2304;47.606;12.186;2024-03-23T10:08:27;3.13;;;2.20;;
4583;SDS011;2304;47.606;12.186;2024-03-23T10:13:32;3.23;;;1.43;;
4583;SDS011;2304;47.606;12.186;2024-03-23T10:18:36;3.07;;;1.50;;
4583;SDS011;2304;47.606;12.186;2024-03-23T10:23:39;2.93;;;1.20;;
4583;SDS011;2304;47.606;12.186;2024-03-23T10:28:55;2.63;;;1.10;;
4583;SDS011;2304;47.606;12.186;2024-03-23T10:34:00;3.70;;;2.03;;
4583;SDS011;2304;47.606;12.186;2024-03-23T10:39:03;2.33;;;1.10;;
4583;SDS011;2304;47.606;12.186;2024-03-23T10:44:10;2.57;;;1.47;;
4583;SDS011;2304;47.606;12.186;2024-03-23T10:49:12;2.63;;;1.23;;
4583;SDS011;2304;47.606;12.186;2024-03-23T10:54:14;5.90;;;3.60;;
4583;SDS011;2304;47.606;12.186;2024-03-23T10:59:17;3.33;;;1.20;;
4583;SDS011;2304;47.606;12.186;2024-03-23T11:04:31;2.23;;;1.30;;
4583;SDS011;2304;47.606;12.186;2024-03-23T11:09:38;2.20;;;1.40;;
4583;SDS011;2304;47.606;12.186;2024-03-23T11:14:42;2.03;;;1.40;;
4583;SDS011;2304;47.606;12.186;2024-03-23T11:19:44;1.90;;;1.10;;
4583;SDS011;2304;47.606;12.186;2024-03-23T11:24:53;1.57;;;0.90;;
4583;SDS011;2304;47.606;12.186;2024-03-23T11:30:10;1.70;;;1.17;;
4583;SDS011;2304;47.606;12.186;2024-03-23T11:35:28;2.40;;;2.10;;
4583;SDS011;2304;47.606;12.186;2024-03-23T11:40:33;1.70;;;1.07;;
4583;SDS011;2304;47.606;12.186;2024-03-23T11:45:37;1.63;;;0.97;;
4583;SDS011;2304;47.606;12.186;2024-03-23T11:50:41;1.90;;;0.90;;
4583;SDS011;2304;47.606;12.186;2024-03-23T11:55:45;2.50;;;1.50;;
4583;SDS011;2304;47.606;12.186;2024-03-23T12:00:52;2.60;;;1.60;;
4583;SDS011;2304;47.606;12.186;2024-03-23T12:05:58;2.23;;;1.20;;
4583;SDS011;2304;47.606;12.186;2024-03-23T12:11:05;1.63;;;0.90;;
4583;SDS011;2304;47.606;12.186;2024-03-23T12:16:10;7.47;;;3.67;;
4583;SDS011;2304;47.606;12.186;2024-03-23T12:21:13;3.73;;;3.10;;
4583;SDS011;2304;47.606;12.186;2024-03-23T12:26:15;2.87;;;1.30;;
4583;SDS011;2304;47.606;12.186;2024-03-23T12:31:19;2.47;;;1.40;;
4583;SDS011;2304;47.606;12.186;2024-03-23T12:36:21;2.03;;;1.33;;
4583;SDS011;2304;47.606;12.186;2024-03-23T12:41:23;2.43;;;1.80;;
4583;SDS011;2304;47.606;12.186;2024-03-23T12:46:26;6.40;;;3.20;;
4583;SDS011;2304;47.606;12.186;2024-03-23T12:51:28;3.90;;;3.03;;
4583;SDS011;2304;47.606;12.186;2024-03-23T12:56:30;2.30;;;1.60;;
4583;SDS011;2304;47.606;12.186;2024-03-23T13:01:33;3.23;;;2.07;;
4583;SDS011;2304;47.606;12.186;2024-03-23T13:06:35;2.30;;;1.60;;
4583;SDS011;2304;47.606;12.186;2024-03-23T13:11:37;2.83;;;1.30;;
4583;SDS011;2304;47.606;12.186;2024-03-23T13:16:40;3.50;;;1.30;;
4583;SDS011;2304;47.606;12.186;2024-03-23T13:21:42;2.90;;;1.50;;
4583;SDS011;2304;47.606;12.186;2024-03-23T13:26:43;2.73;;;1.00;;
4583;SDS011;2304;47.606;12.186;2024-03-23T13:31:47;1.80;;;1.10;;
4583;SDS011;2304;47.606;12.186;2024-03-23T13:36:49;2.10;;;1.20;;
4583;SDS011;2304;47.606;12.186;2024-03-23T13:41:51;1.80;;;0.90;;
4583;SDS011;2304;47.606;12.186;2024-03-23T13:46:54;6.47;;;1.10;;
4583;SDS011;2304;47.606;12.186;2024-03-23T13:51:57;2.07;;;1.10;;
4583;SDS011;2304;47.606;12.186;2024-03-23T13:56:59;2.60;;;1.17;;
4583;SDS011;2304;47.606;12.186;2024-03-23T14:02:03;3.10;;;1.43;;
4583;SDS011;2304;47.606;12.186;2024-03-23T14:07:05;2.50;;;1.20;;
4583;SDS011;2304;47.606;12.186;2024-03-23T14:12:09;2.50;;;1.30;;
4583;SDS011;2304;47.606;12.186;2024-03-23T14:17:12;2.83;;;1.40;;
4583;SDS011;2304;47.606;12.186;2024-03-23T14:22:14;2.83;;;1.33;;
4583;SDS011;2304;47.606;12.186;2024-03-23T14:27:19;2.20;;;1.30;;
4583;SDS011;2304;47.606;12.186;2024-03-23T14:32:23;2.43;;;1.00;;
4583;SDS011;2304;47.606;12.186;2024-03-23T14:37:25;4.00;;;1.77;;
4583;SDS011;2304;47.606;12.186;2024-03-23T14:42:27;4.10;;;1.60;;
4583;SDS011;2304;47.606;12.186;2024-03-23T14:47:31;3.90;;;2.10;;
4583;SDS011;2304;47.606;12.186;2024-03-23T14:52:33;2.43;;;1.30;;
4583;SDS011;2304;47.606;12.186;2024-03-23T14:57:35;3.57;;;2.00;;
4583;SDS011;2304;47.606;12.186;2024-03-23T15:02:40;2.80;;;1.63;;
4583;SDS011;2304;47.606;12.186;2024-03-23T15:07:42;6.77;;;2.00;;
4583;SDS011;2304;47.606;12.186;2024-03-23T15:12:44;5.90;;;1.53;;
4583;SDS011;2304;47.606;12.186;2024-03-23T15:17:47;3.63;;;1.90;;
4583;SDS011;2304;47.606;12.186;2024-03-23T15:22:50;3.30;;;2.20;;
4583;SDS011;2304;47.606;12.186;2024-03-23T15:27:52;4.67;;;2.90;;
4583;SDS011;2304;47.606;12.186;2024-03-23T15:32:56;5.00;;;2.93;;
4583;SDS011;2304;47.606;12.186;2024-03-23T15:37:58;5.37;;;2.70;;
4583;SDS011;2304;47.606;12.186;2024-03-23T15:43:00;4.20;;;2.60;;
4583;SDS011;2304;47.606;12.186;2024-03-23T15:48:03;6.43;;;2.80;;
4583;SDS011;2304;47.606;12.186;2024-03-23T15:53:06;9.00;;;3.80;;
4583;SDS011;2304;47.606;12.186;2024-03-23T15:58:08;5.50;;;3.10;;
4583;SDS011;2304;47.606;12.186;2024-03-23T16:03:11;4.57;;;2.13;;
4583;SDS011;2304;47.606;12.186;2024-03-23T16:08:13;6.10;;;3.27;;
4583;SDS011;2304;47.606;12.186;2024-03-23T16:13:15;3.63;;;2.00;;
4583;SDS011;2304;47.606;12.186;2024-03-23T16:18:19;3.50;;;2.03;;
4583;SDS011;2304;47.606;12.186;2024-03-23T16:23:21;3.27;;;2.20;;
4583;SDS011;2304;47.606;12.186;2024-03-23T16:28:23;3.50;;;2.07;;
4583;SDS011;2304;47.606;12.186;2024-03-23T16:33:27;5.73;;;2.13;;
4583;SDS011;2304;47.606;12.186;2024-03-23T16:38:31;13.53;;;7.60;;
4583;SDS011;2304;47.606;12.186;2024-03-23T16:43:34;3.57;;;2.10;;
4583;SDS011;2304;47.606;12.186;2024-03-23T16:48:39;6.40;;;4.33;;
4583;SDS011;2304;47.606;12.186;2024-03-23T16:53:41;4.73;;;3.03;;
4583;SDS011;2304;47.606;12.186;2024-03-23T16:58:45;5.10;;;3.20;;
4583;SDS011;2304;47.606;12.186;2024-03-23T17:03:50;5.00;;;3.30;;
4583;SDS011;2304;47.606;12.186;2024-03-23T17:08:53;7.80;;;4.63;;
4583;SDS011;2304;47.606;12.186;2024-03-23T17:13:55;7.90;;;5.00;;
4583;SDS011;2304;47.606;12.186;2024-03-23T17:18:58;9.00;;;4.13;;
4583;SDS011;2304;47.606;12.186;2024-03-23T17:24:00;4.50;;;2.60;;
4583;SDS011;2304;47.606;12.186;2024-03-23T17:29:02;4.70;;;2.90;;
4583;SDS011;2304;47.606;12.186;2024-03-23T17:34:06;3.23;;;2.40;;
4583;SDS011;2304;47.606;12.186;2024-03-23T17:39:08;2.40;;;1.77;;
4583;SDS011;2304;47.606;12.186;2024-03-23T17:44:12;4.20;;;2.63;;
4583;SDS011;2304;47.606;12.186;2024-03-23T17:49:16;3.13;;;1.87;;
4583;SDS011;2304;47.606;12.186;2024-03-23T17:54:18;3.67;;;2.33;;
4583;SDS011;2304;47.606;12.186;2024-03-23T17:59:20;2.90;;;2.20;;
4583;SDS011;2304;47.606;12.186;2024-03-23T18:04:23;4.20;;;2.50;;
4583;SDS011;2304;47.606;12.186;2024-03-23T18:09:25;4.33;;;3.07;;
4583;SDS011;2304;47.606;12.186;2024-03-23T18:14:27;7.00;;;5.10;;
4583;SDS011;2304;47.606;12.186;2024-03-23T18:19:30;5.77;;;3.90;;
4583;SDS011;2304;47.606;12.186;2024-03-23T18:24:32;6.60;;;4.23;;
4583;SDS011;2304;47.606;12.186;2024-03-23T18:29:34;9.00;;;4.43;;
4583;SDS011;2304;47.606;12.186;2024-03-23T18:34:37;14.93;;;8.87;;
4583;SDS011;2304;47.606;12.186;2024-03-23T18:39:39;28.73;;;14.50;;
4583;SDS011;2304;47.606;12.186;2024-03-23T18:44:41;8.43;;;5.13;;
4583;SDS011;2304;47.606;12.186;2024-03-23T18:49:45;5.97;;;3.23;;
4583;SDS011;2304;47.606;12.186;2024-03-23T18:54:49;39.23;;;21.47;;
4583;SDS011;2304;47.606;12.186;2024-03-23T18:59:51;46.50;;;23.33;;
4583;SDS011;2304;47.606;12.186;2024-03-23T19:04:54;11.70;;;6.67;;
4583;SDS011;2304;47.606;12.186;2024-03-23T19:09:56;15.83;;;9.57;;
4583;SDS011;2304;47.606;12.186;2024-03-23T19:14:59;9.10;;;5.90;;
4583;SDS011;2304;47.606;12.186;2024-03-23T19:20:04;8.20;;;4.70;;
4583;SDS011;2304;47.606;12.186;2024-03-23T19:25:07;5.90;;;4.77;;
4583;SDS011;2304;47.606;12.186;2024-03-23T19:30:09;19.23;;;11.80;;
4583;SDS011;2304;47.606;12.186;2024-03-23T19:35:13;22.87;;;12.50;;
4583;SDS011;2304;47.606;12.186;2024-03-23T19:40:15;15.70;;;9.47;;
4583;SDS011;2304;47.606;12.186;2024-03-23T19:45:17;14.63;;;8.33;;
4583;SDS011;2304;47.606;12.186;2024-03-23T19:50:20;15.60;;;8.77;;
4583;SDS011;2304;47.606;12.186;2024-03-23T19:55:22;18.03;;;10.57;;
4583;SDS011;2304;47.606;12.186;2024-03-23T20:00:24;10.87;;;5.63;;
4583;SDS011;2304;47.606;12.186;2024-03-23T20:05:27;8.90;;;5.77;;
4583;SDS011;2304;47.606;12.186;2024-03-23T20:10:29;6.90;;;4.77;;
4583;SDS011;2304;47.606;12.186;2024-03-23T20:15:31;6.80;;;3.47;;
4583;SDS011;2304;47.606;12.186;2024-03-23T20:20:35;9.07;;;4.40;;
4583;SDS011;2304;47.606;12.186;2024-03-23T20:25:37;7.43;;;3.10;;
4583;SDS011;2304;47.606;12.186;2024-03-23T20:30:39;6.80;;;3.90;;
4583;SDS011;2304;47.606;12.186;2024-03-23T20:35:48;4.60;;;3.50;;
4583;SDS011;2304;47.606;12.186;2024-03-23T20:40:51;5.00;;;2.80;;
4583;SDS011;2304;47.606;12.186;2024-03-23T20:45:56;5.13;;;4.20;;
4583;SDS011;2304;47.606;12.186;2024-03-23T20:51:01;5.70;;;3.83;;
4583;SDS011;2304;47.606;12.186;2024-03-23T20:56:04;9.87;;;5.63;;
4583;SDS011;2304;47.606;12.186;2024-03-23T21:01:08;9.73;;;5.37;;
4583;SDS011;2304;47.606;12.186;2024-03-23T21:06:11;5.07;;;3.73;;
4583;SDS011;2304;47.606;12.186;2024-03-23T21:11:13;7.70;;;5.00;;
4583;SDS011;2304;47.606;12.186;2024-03-23T21:16:16;9.93;;;6.00;;
4583;SDS011;2304;47.606;12.186;2024-03-23T21:21:19;7.57;;;4.50;;
4583;SDS011;2304;47.606;12.186;2024-03-23T21:26:21;6.77;;;4.30;;
4583;SDS011;2304;47.606;12.186;2024-03-23T21:31:23;22.03;;;11.97;;
4583;SDS011;2304;47.606;12.186;2024-03-23T21:36:26;14.70;;;8.77;;
4583;SDS011;2304;47.606;12.186;2024-03-23T21:41:29;13.77;;;8.33;;
4583;SDS011;2304;47.606;12.186;2024-03-23T21:46:32;15.30;;;9.30;;
4583;SDS011;2304;47.606;12.186;2024-03-23T21:51:35;9.37;;;6.10;;
4583;SDS011;2304;47.606;12.186;2024-03-23T21:56:40;6.80;;;4.30;;
4583;SDS011;2304;47.606;12.186;2024-03-23T22:01:42;9.33;;;4.60;;
4583;SDS011;2304;47.606;12.186;2024-03-23T22:06:45;5.37;;;3.90;;
4583;SDS011;2304;47.606;12.186;2024-03-23T22:11:49;7.83;;;4.20;;
4583;SDS011;2304;47.606;12.186;2024-03-23T22:16:51;3.40;;;2.20;;
4583;SDS011;2304;47.606;12.186;2024-03-23T22:21:54;5.90;;;3.20;;
4583;SDS011;2304;47.606;12.186;2024-03-23T22:26:56;4.53;;;2.30;;
4583;SDS011;2304;47.606;12.186;2024-03-23T22:31:58;2.83;;;1.87;;
4583;SDS011;2304;47.606;12.186;2024-03-23T22:37:01;2.60;;;1.73;;
4583;SDS011;2304;47.606;12.186;2024-03-23T22:42:03;4.17;;;2.13;;
4583;SDS011;2304;47.606;12.186;2024-03-23T22:47:05;3.70;;;2.00;;
4583;SDS011;2304;47.606;12.186;2024-03-23T22:52:09;3.87;;;2.43;;
4583;SDS011;2304;47.606;12.186;2024-03-23T22:57:11;3.37;;;2.40;;
4583;SDS011;2304;47.606;12.186;2024-03-23T23:02:13;3.10;;;2.10;;
4583;SDS011;2304;47.606;12.186;2024-03-23T23:07:17;3.40;;;2.20;;
4583;SDS011;2304;47.606;12.186;2024-03-23T23:12:18;3.53;;;2.00;;
4583;SDS011;2304;47.606;12.186;2024-03-23T23:17:20;3.50;;;2.50;;
4583;SDS011;2304;47.606;12.186;2024-03-23T23:22:24;3.07;;;2.17;;
4583;SDS011;2304;47.606;12.186;2024-03-23T23:27:26;2.73;;;1.83;;
4583;SDS011;2304;47.606;12.186;2024-03-23T23:32:27;3.10;;;2.17;;
4583;SDS011;2304;47.606;12.186;2024-03-23T23:37:32;4.00;;;2.53;;
4583;SDS011;2304;47.606;12.186;2024-03-23T23:42:34;2.70;;;1.93;;
4583;SDS011;2304;47.606;12.186;2024-03-23T23:47:36;3.50;;;1.90;;
4583;SDS011;2304;47.606;12.186;2024-03-23T23:52:39;4.10;;;2.33;;
4583;SDS011;2304;47.606;12.186;2024-03-23T23:57:43;4.00;;;2.30;;
